Time;durP1;ratioP1;P1;durP2;ratioP2;P2;SDS_P1;SDS_P2;PMS_P1;PMS_P2;Temp;Humidity;BMP_temperature;BMP_pressure;BME280_temperature;BME280_humidity;BME280_pressure;Samples;Min_cycle;Max_cycle;Signal;HPM_P1;HPM_P2
2022/06/26 00:00:01;;;;;;;38.33;13.90;;;;;;;20.61;59.62;100141.66;4981220;28;20054;-73
2022/06/26 00:02:27;;;;;;;55.72;16.60;;;;;;;20.59;59.37;100138.41;4982289;28;20487;-74
2022/06/26 00:04:54;;;;;;;53.08;14.95;;;;;;;20.57;59.29;100140.69;4998570;28;20530;-74
2022/06/26 00:07:20;;;;;;;37.60;15.65;;;;;;;20.55;59.61;100146.56;4982611;28;20437;-74
2022/06/26 00:09:47;;;;;;;48.75;15.93;;;;;;;20.51;59.70;100145.63;4984407;28;20046;-74
2022/06/26 00:12:13;;;;;;;45.53;16.88;;;;;;;20.49;59.79;100142.38;4985877;28;20047;-74
2022/06/26 00:14:39;;;;;;;46.42;16.52;;;;;;;20.44;60.20;100150.06;4985441;28;20053;-74
2022/06/26 00:17:05;;;;;;;39.28;15.75;;;;;;;20.40;59.98;100147.13;4983005;28;20133;-68
2022/06/26 00:19:32;;;;;;;47.40;17.77;;;;;;;20.36;60.14;100148.97;4979349;28;20046;-69
2022/06/26 00:22:05;;;;;;;33.85;16.05;;;;;;;20.33;60.50;100147.66;4982686;28;20312;-67
2022/06/26 00:24:32;;;;;;;44.20;19.80;;;;;;;20.34;60.49;100154.03;4982159;28;20074;-68
2022/06/26 00:26:58;;;;;;;45.63;16.65;;;;;;;20.19;60.36;100128.44;4983050;28;20154;-68
2022/06/26 00:29:24;;;;;;;43.90;16.85;;;;;;;20.27;60.79;100149.00;4982271;28;20137;-68
2022/06/26 00:31:50;;;;;;;57.58;22.42;;;;;;;20.24;61.45;100155.22;4982394;28;20105;-68
2022/06/26 00:34:16;;;;;;;66.97;20.83;;;;;;;20.13;61.84;100146.41;4982186;28;20061;-69
2022/06/26 00:36:42;;;;;;;74.43;25.95;;;;;;;20.16;62.45;100148.53;4982966;28;20060;-69
2022/06/26 00:39:10;;;;;;;67.78;23.83;;;;;;;20.12;62.66;100162.25;4981376;28;20061;-68
2022/06/26 00:41:38;;;;;;;58.45;23.02;;;;;;;20.10;62.62;100153.47;4964160;28;20050;-69
2022/06/26 00:44:13;;;;;;;61.22;21.95;;;;;;;20.08;62.79;100152.97;4946806;28;20062;-67
2022/06/26 00:46:40;;;;;;;62.58;23.05;;;;;;;20.06;63.07;100157.22;4979128;28;20049;-68
2022/06/26 00:49:06;;;;;;;73.32;28.02;;;;;;;20.07;63.50;100164.41;4964373;28;20432;-74
2022/06/26 00:51:34;;;;;;;66.93;25.48;;;;;;;20.09;63.52;100168.47;4957756;28;20042;-74
2022/06/26 00:54:00;;;;;;;65.57;25.85;;;;;;;20.06;64.14;100171.09;4963665;28;20414;-73
2022/06/26 00:56:28;;;;;;;82.25;24.38;;;;;;;20.00;63.59;100162.13;4963620;28;20459;-74
2022/06/26 00:58:55;;;;;;;75.47;24.42;;;;;;;19.95;64.10;100170.63;4961532;28;20051;-75
2022/06/26 01:01:21;;;;;;;76.25;21.80;;;;;;;19.90;63.73;100171.59;4967306;28;20635;-74
2022/06/26 01:03:47;;;;;;;84.65;22.25;;;;;;;19.92;63.67;100176.84;4982037;28;20109;-75
2022/06/26 01:06:13;;;;;;;77.03;22.67;;;;;;;19.92;63.93;100172.09;4964987;28;20425;-74
2022/06/26 01:08:39;;;;;;;79.93;24.27;;;;;;;19.93;63.76;100178.47;4981624;28;20471;-74
2022/06/26 01:11:17;;;;;;;71.30;23.42;;;;;;;19.97;63.08;100171.91;4982817;28;20050;-74
2022/06/26 01:13:46;;;;;;;82.10;26.60;;;;;;;20.00;63.02;100176.00;4932897;28;20051;-74
2022/06/26 01:16:13;;;;;;;66.00;21.40;;;;;;;19.92;63.03;100161.00;4948503;28;20042;-75
2022/06/26 01:18:39;;;;;;;;;;;;;;;20.02;63.12;100178.47;4968194;28;20089;-73
2022/06/26 01:21:06;;;;;;;88.55;34.40;;;;;;;20.00;63.08;100177.97;4967313;28;20386;-74
2022/06/26 01:23:34;;;;;;;89.00;24.50;;;;;;;20.00;63.26;100189.06;4967586;28;20046;-69
2022/06/26 01:26:00;;;;;;;102.45;28.90;;;;;;;20.03;63.14;100188.41;4966190;28;20145;-68
2022/06/26 01:28:26;;;;;;;89.70;22.70;;;;;;;20.04;63.06;100192.81;4964553;28;20054;-69
2022/06/26 01:30:52;;;;;;;83.55;23.02;;;;;;;20.05;63.21;100197.22;4949451;28;20055;-67
2022/06/26 01:33:18;;;;;;;102.68;24.70;;;;;;;20.07;63.10;100192.16;4965158;28;20047;-68
2022/06/26 01:35:45;;;;;;;;;;;;;;;20.08;63.02;100199.31;4948299;28;20043;-68
2022/06/26 01:38:12;;;;;;;102.77;26.60;;;;;;;20.11;63.04;100193.94;4963835;28;19972;-67
2022/06/26 01:40:41;;;;;;;88.55;23.23;;;;;;;20.15;62.86;100193.28;4966357;28;20042;-68
2022/06/26 01:43:10;;;;;;;88.63;23.75;;;;;;;20.16;62.70;100186.56;4963968;28;20057;-67
2022/06/26 01:45:48;;;;;;;77.30;20.90;;;;;;;20.16;62.74;100184.63;4980741;28;20062;-69
2022/06/26 01:48:14;;;;;;;93.40;26.65;;;;;;;20.19;62.89;100185.91;4966518;28;20043;-69
2022/06/26 01:50:42;;;;;;;81.85;24.40;;;;;;;20.20;62.57;100190.31;4965809;28;20065;-68
2022/06/26 01:53:09;;;;;;;77.90;23.77;;;;;;;20.25;62.61;100195.69;4964078;28;20106;-68
2022/06/26 01:55:36;;;;;;;;;;;;;;;20.26;62.57;100200.91;4965334;28;20046;-69
2022/06/26 01:58:05;;;;;;;100.68;28.30;;;;;;;;;;4948444;28;19932;-68
2022/06/26 02:00:33;;;;;;;75.18;22.40;;;;;;;20.35;62.46;100192.56;4963639;28;20074;-69
2022/06/26 02:02:59;;;;;;;84.40;23.77;;;;;;;20.39;62.27;100190.75;4965687;28;20097;-69
2022/06/26 02:05:26;;;;;;;85.40;24.00;;;;;;;20.46;62.18;100189.41;4966504;28;20049;-68
2022/06/26 02:07:53;;;;;;;71.05;23.67;;;;;;;20.49;62.53;100192.34;4966668;28;20055;-67
2022/06/26 02:16:17;;;;;;;83.90;23.50;;;;;;;20.59;62.51;100193.13;4970734;28;20051;-68
2022/06/26 02:18:46;;;;;;;94.68;24.08;;;;;;;20.61;62.19;100201.97;4984925;28;20089;-72
2022/06/26 02:21:20;;;;;;;103.55;23.08;;;;;;;20.64;62.14;100204.06;4983545;28;20128;-67
2022/06/26 02:23:49;;;;;;;87.78;22.60;;;;;;;20.64;62.16;100209.63;4973627;28;20469;-68
2022/06/26 02:26:17;;;;;;;81.78;20.85;;;;;;;20.72;61.94;100207.94;4964773;28;20078;-68
2022/06/26 02:28:46;;;;;;;90.35;24.08;;;;;;;20.73;61.77;100210.38;4978708;28;20047;-68
2022/06/26 02:31:12;;;;;;;66.53;21.75;;;;;;;20.72;61.45;100205.97;4949441;28;20542;-68
2022/06/26 02:33:39;;;;;;;73.30;20.97;;;;;;;20.81;61.18;100222.63;4966281;28;20057;-69
2022/06/26 02:36:07;;;;;;;73.13;23.67;;;;;;;20.86;61.49;100225.25;4963967;28;20061;-68
2022/06/26 02:38:33;;;;;;;73.30;21.83;;;;;;;20.90;61.37;100228.97;4965062;28;20786;-69
2022/06/26 02:41:02;;;;;;;72.30;22.10;;;;;;;20.95;61.42;100226.00;4964385;28;20043;-67
2022/06/26 02:43:28;;;;;;;100.90;25.13;;;;;;;20.99;61.03;100226.16;4963814;28;20054;-67
2022/06/26 02:45:58;;;;;;;128.07;25.63;;;;;;;21.04;61.37;100227.91;4981426;28;20050;-69
2022/06/26 02:48:24;;;;;;;110.68;26.25;;;;;;;21.08;61.11;100229.69;4983061;28;20064;-68
2022/06/26 02:50:50;;;;;;;79.60;24.63;;;;;;;21.14;61.50;100235.06;4983359;28;20070;-69
2022/06/26 02:53:17;;;;;;;100.30;25.37;;;;;;;21.21;61.29;100235.31;4986754;28;20042;-68
2022/06/26 02:55:43;;;;;;;117.00;29.27;;;;;;;21.27;61.21;100239.56;4982551;28;20355;-69
2022/06/26 02:58:13;;;;;;;97.13;25.35;;;;;;;21.33;60.54;100234.63;4982633;28;20039;-74
2022/06/26 03:00:47;;;;;;;86.38;24.25;;;;;;;21.41;60.42;100235.72;4966605;28;20501;-73
2022/06/26 03:03:16;;;;;;;77.35;23.52;;;;;;;21.48;60.04;100231.25;4982268;28;20043;-73
2022/06/26 03:05:42;;;;;;;84.45;22.52;;;;;;;21.54;59.88;100238.22;4982185;28;20090;-74
2022/06/26 03:08:08;;;;;;;97.03;23.65;;;;;;;21.60;59.63;100241.63;4984616;28;20074;-73
2022/06/26 03:10:34;;;;;;;84.10;23.77;;;;;;;21.68;59.31;100246.31;4967717;28;20444;-74
2022/06/26 03:13:03;;;;;;;69.65;24.05;;;;;;;21.76;59.14;100249.38;4983689;28;20053;-74
2022/06/26 03:15:30;;;;;;;75.47;23.48;;;;;;;21.83;58.76;100244.06;4982220;28;20125;-75
2022/06/26 03:17:59;;;;;;;88.28;23.15;;;;;;;21.90;58.38;100243.50;4982248;28;20509;-73
2022/06/26 03:20:28;;;;;;;66.00;22.77;;;;;;;21.95;58.45;100252.47;4985643;28;20428;-74
2022/06/26 03:22:54;;;;;;;82.75;22.90;;;;;;;22.00;58.16;100247.84;4982560;28;20054;-73
2022/06/26 03:25:20;;;;;;;94.32;24.30;;;;;;;22.12;57.63;100253.47;4984277;28;20050;-74
2022/06/26 03:27:46;;;;;;;66.45;22.35;;;;;;;22.18;57.07;100257.69;4998477;28;20434;-73
2022/06/26 03:30:14;;;;;;;84.20;23.02;;;;;;;22.23;57.29;100263.03;4966221;28;20485;-74
2022/06/26 03:32:50;;;;;;;87.60;24.55;;;;;;;22.30;56.75;100258.84;4964993;28;20053;-75
2022/06/26 03:35:17;;;;;;;79.72;23.50;;;;;;;22.23;56.45;100253.84;4983177;28;20054;-74
2022/06/26 03:37:46;;;;;;;79.47;23.63;;;;;;;22.42;56.19;100264.47;4982018;28;20046;-74
2022/06/26 03:40:13;;;;;;;86.60;22.85;;;;;;;22.49;55.80;100263.94;4997980;28;20058;-74
2022/06/26 03:42:40;;;;;;;84.28;21.35;;;;;;;22.57;55.77;100262.22;4982157;28;20050;-73
2022/06/26 03:45:07;;;;;;;85.63;22.73;;;;;;;22.67;55.45;100258.97;4984010;28;20138;-74
2022/06/26 03:47:34;;;;;;;98.70;22.17;;;;;;;22.74;55.09;100252.84;4982675;28;20513;-73
2022/06/26 03:50:01;;;;;;;83.00;21.73;;;;;;;22.80;55.15;100265.38;4966692;28;20422;-74
2022/06/26 03:52:31;;;;;;;69.35;23.15;;;;;;;22.88;55.27;100258.06;4961789;28;20125;-74
2022/06/26 03:55:01;;;;;;;87.53;21.30;;;;;;;22.96;54.70;100257.16;4961678;28;20105;-74
2022/06/26 03:57:29;;;;;;;69.60;20.23;;;;;;;23.03;54.04;100256.56;4960137;28;20042;-75
2022/06/26 03:59:56;;;;;;;60.27;19.47;;;;;;;23.07;53.75;100252.72;4962111;28;20058;-74
2022/06/26 04:02:42;;;;;;;;;;;;;;;23.14;53.54;100263.28;4980773;28;20316;-73
2022/06/26 04:05:11;;;;;;;62.28;18.90;;;;;;;23.25;53.13;100266.41;4997639;28;20005;-74
2022/06/26 04:07:38;;;;;;;75.18;21.00;;;;;;;23.32;52.88;100260.28;4981696;28;20062;-74
2022/06/26 04:10:35;;;;;;;79.47;20.98;;;;;;;23.36;52.54;100264.00;4979307;28;20054;-73
2022/06/26 04:13:08;;;;;;;95.35;21.27;;;;;;;23.40;52.86;100264.09;4962186;28;20042;-73
2022/06/26 04:15:39;;;;;;;79.38;20.65;;;;;;;23.43;52.48;100266.22;4981637;28;20050;-74
2022/06/26 04:18:06;;;;;;;76.30;19.98;;;;;;;23.47;52.35;100262.34;4983292;28;20096;-74
2022/06/26 04:20:32;;;;;;;;;;;;;;;23.51;52.33;100271.66;4982630;28;20077;-75
2022/06/26 04:23:03;;;;;;;105.20;22.58;;;;;;;23.61;52.13;100273.16;4981749;28;19925;-74
2022/06/26 04:25:31;;;;;;;105.68;21.40;;;;;;;23.70;51.92;100274.97;4982508;28;20054;-73
2022/06/26 04:27:59;;;;;;;86.40;21.67;;;;;;;23.80;51.27;100271.69;4964442;28;20050;-75
2022/06/26 04:30:30;;;;;;;101.68;21.50;;;;;;;23.85;50.90;100277.03;4981198;28;20056;-74
2022/06/26 04:32:57;;;;;;;90.57;19.48;;;;;;;23.87;50.95;100274.69;4981980;28;20050;-73
2022/06/26 04:35:23;;;;;;;93.18;19.40;;;;;;;23.90;50.49;100276.78;4982356;28;20057;-74
2022/06/26 04:37:50;;;;;;;74.55;17.45;;;;;;;23.90;49.87;100264.81;4980713;28;20597;-74
2022/06/26 04:40:19;;;;;;;64.47;16.13;;;;;;;24.03;49.21;100268.38;4965096;28;20555;-73
2022/06/26 04:42:45;;;;;;;79.40;15.75;;;;;;;24.06;49.42;100273.28;4981926;28;20053;-73
2022/06/26 04:45:13;;;;;;;55.28;15.55;;;;;;;24.10;48.91;100276.97;4982303;28;20395;-74
2022/06/26 04:47:41;;;;;;;56.22;13.13;;;;;;;24.18;48.60;100276.00;4985470;28;20058;-73
2022/06/26 04:50:13;;;;;;;63.67;14.93;;;;;;;24.32;48.38;100285.94;4983934;28;20068;-74
2022/06/26 04:52:43;;;;;;;63.45;14.35;;;;;;;24.46;47.73;100283.53;5001472;28;20042;-74
2022/06/26 04:55:10;;;;;;;72.15;14.55;;;;;;;24.53;47.54;100282.13;4984694;28;20046;-74
2022/06/26 04:57:39;;;;;;;52.45;13.98;;;;;;;24.55;47.27;100280.56;4984156;28;20046;-75
2022/06/26 05:00:08;;;;;;;54.13;11.95;;;;;;;24.61;46.88;100275.53;4984547;28;20046;-69
2022/06/26 05:02:36;;;;;;;64.47;13.13;;;;;;;24.75;46.37;100280.69;4985732;28;20082;-71
2022/06/26 05:05:22;;;;;;;52.25;12.27;;;;;;;24.83;45.74;100282.53;4973389;28;20053;-68
2022/06/26 05:07:57;;;;;;;66.13;11.90;;;;;;;24.90;45.48;100279.91;4983773;28;20068;-68
2022/06/26 05:10:24;;;;;;;40.72;11.10;;;;;;;24.95;45.05;100281.59;4974260;28;20058;-69
2022/06/26 05:12:54;;;;;;;44.25;10.65;;;;;;;25.00;44.68;100281.34;4969666;28;20538;-68
2022/06/26 05:15:38;;;;;;;36.97;9.27;;;;;;;25.05;44.05;100288.63;4983568;28;20065;-68
2022/06/26 05:18:08;;;;;;;26.63;8.50;;;;;;;25.01;44.02;100285.78;4958228;28;20048;-74
2022/06/26 05:20:35;;;;;;;27.65;8.00;;;;;;;25.03;43.68;100283.41;4967264;28;20057;-73
2022/06/26 05:23:07;;;;;;;31.23;8.35;;;;;;;25.08;43.39;100285.13;4981890;28;20614;-73
2022/06/26 05:25:37;;;;;;;20.30;7.40;;;;;;;25.12;43.56;100286.03;4964189;28;20054;-75
2022/06/26 05:28:04;;;;;;;19.17;8.05;;;;;;;25.19;43.22;100288.97;4990227;28;20623;-73
2022/06/26 05:30:30;;;;;;;17.20;5.80;;;;;;;25.20;42.06;100287.00;4996108;28;20055;-73
2022/06/26 05:33:03;;;;;;;16.38;5.35;;;;;;;25.18;41.70;100290.16;4982605;28;20068;-75
2022/06/26 05:35:32;;;;;;;14.23;4.70;;;;;;;25.24;41.06;100287.09;4985460;28;20051;-74
2022/06/26 05:37:58;;;;;;;11.80;4.78;;;;;;;25.26;40.92;100288.34;4984262;28;20158;-74
2022/06/26 05:40:26;;;;;;;16.73;4.68;;;;;;;25.31;40.56;100290.88;4984460;28;20430;-74
2022/06/26 05:42:54;;;;;;;14.27;4.65;;;;;;;25.37;40.43;100293.38;4984248;28;20042;-75
2022/06/26 05:45:21;;;;;;;13.82;4.45;;;;;;;25.41;39.59;100289.50;4966053;28;20069;-73
2022/06/26 05:48:20;;;;;;;12.52;5.07;;;;;;;25.46;39.84;100288.41;4971190;28;20441;-74
2022/06/26 05:51:04;;;;;;;16.63;5.05;;;;;;;25.48;39.97;100286.88;4981009;28;20514;-74
2022/06/26 05:53:49;;;;;;;15.93;4.85;;;;;;;25.49;40.16;100285.69;4983802;28;20540;-73
2022/06/26 05:56:43;;;;;;;19.17;4.90;;;;;;;25.55;40.38;100294.63;4974535;28;20615;-73
2022/06/26 05:59:15;;;;;;;22.25;5.18;;;;;;;25.62;40.30;100291.19;4999460;28;20042;-74
2022/06/26 06:02:02;;;;;;;14.88;5.28;;;;;;;25.72;40.04;100289.78;4945648;28;20047;-74
2022/06/26 06:04:28;;;;;;;15.70;4.72;;;;;;;25.80;39.65;100290.75;4979667;28;20541;-75
2022/06/26 06:07:00;;;;;;;16.25;5.13;;;;;;;25.68;39.73;100253.34;4982435;28;20042;-73
2022/06/26 06:09:26;;;;;;;19.48;5.15;;;;;;;25.95;39.40;100289.09;4985149;28;20588;-74
2022/06/26 06:11:53;;;;;;;16.10;5.03;;;;;;;26.00;39.36;100294.38;4980754;28;20541;-74
2022/06/26 06:14:20;;;;;;;21.98;5.53;;;;;;;26.04;38.90;100289.66;4983392;28;20134;-74
2022/06/26 06:16:46;;;;;;;14.05;4.28;;;;;;;26.13;38.70;100287.44;4983786;28;20469;-68
2022/06/26 06:19:12;;;;;;;15.93;4.85;;;;;;;26.13;38.75;100287.44;4999313;28;20086;-68
2022/06/26 06:21:43;;;;;;;19.17;4.75;;;;;;;26.12;38.62;100279.41;4982960;28;20081;-68
2022/06/26 06:24:11;;;;;;;10.73;4.18;;;;;;;26.18;38.46;100287.19;4982930;28;20077;-73
2022/06/26 06:26:38;;;;;;;19.05;4.47;;;;;;;26.31;37.85;100276.63;4966550;28;20437;-73
2022/06/26 06:29:19;;;;;;;14.60;4.47;;;;;;;26.48;37.58;100280.94;4967989;28;20054;-74
2022/06/26 06:31:46;;;;;;;16.35;4.78;;;;;;;26.64;37.35;100280.00;4984649;28;20486;-73
2022/06/26 06:34:14;;;;;;;15.40;4.57;;;;;;;26.78;36.74;100285.06;4998693;28;20050;-74
2022/06/26 06:36:40;;;;;;;11.60;4.63;;;;;;;26.94;36.23;100284.97;4983407;28;20066;-73
2022/06/26 06:39:07;;;;;;;14.10;4.70;;;;;;;27.11;35.96;100282.81;4967645;28;20054;-73
2022/06/26 06:41:35;;;;;;;12.32;4.53;;;;;;;27.25;35.41;100291.47;4983646;28;20148;-74
2022/06/26 06:44:08;;;;;;;15.57;4.75;;;;;;;27.37;35.85;100293.22;4999694;28;20053;-68
2022/06/26 06:47:14;;;;;;;14.75;5.35;;;;;;;27.46;35.45;100290.16;4978728;28;20038;-68
2022/06/26 06:50:00;;;;;;;19.20;5.47;;;;;;;27.70;35.35;100290.91;4964604;28;20059;-67
2022/06/26 06:52:26;;;;;;;13.57;4.57;;;;;;;27.85;35.27;100292.72;4964547;28;20137;-68
2022/06/26 06:54:53;;;;;;;9.98;4.60;;;;;;;27.99;34.72;100294.09;4979603;28;20112;-68
2022/06/26 06:57:21;;;;;;;14.50;5.10;;;;;;;27.86;34.49;100297.16;4964767;28;20051;-69
2022/06/26 06:59:47;;;;;;;18.77;4.65;;;;;;;27.84;34.79;100284.66;4966602;28;20310;-69
2022/06/26 07:02:13;;;;;;;17.50;5.43;;;;;;;27.94;34.92;100298.06;4943935;28;20046;-69
2022/06/26 07:04:39;;;;;;;19.90;5.37;;;;;;;27.97;34.74;100294.47;4964771;28;20298;-68
2022/06/26 07:07:05;;;;;;;17.50;5.18;;;;;;;27.98;34.48;100293.28;4963851;28;20409;-68
2022/06/26 07:09:31;;;;;;;14.98;5.10;;;;;;;28.03;34.64;100300.56;4982411;28;20043;-69
2022/06/26 07:11:58;;;;;;;16.98;5.07;;;;;;;28.14;34.48;100295.88;4983530;28;20407;-68
2022/06/26 07:14:26;;;;;;;16.15;4.97;;;;;;;28.25;33.80;100298.84;4984803;28;20129;-69
2022/06/26 07:16:52;;;;;;;17.35;4.95;;;;;;;28.39;34.05;100301.00;4984847;28;20046;-69
2022/06/26 07:19:18;;;;;;;24.52;5.97;;;;;;;28.53;33.56;100293.91;4977999;28;20125;-74
2022/06/26 07:21:44;;;;;;;10.77;5.00;;;;;;;28.19;34.17;100299.56;4981121;28;20070;-73
2022/06/26 07:24:11;;;;;;;14.35;4.60;;;;;;;28.21;34.05;100300.81;4961759;28;20750;-73
2022/06/26 07:26:57;;;;;;;14.50;5.25;;;;;;;28.39;33.49;100300.19;4961660;28;20058;-74
2022/06/26 07:29:25;;;;;;;15.03;5.17;;;;;;;28.66;33.43;100300.06;4965160;28;20061;-75
2022/06/26 07:31:51;;;;;;;19.08;5.47;;;;;;;28.80;33.06;100293.75;4987009;28;20054;-69
2022/06/26 07:34:21;;;;;;;14.10;4.63;;;;;;;29.20;32.51;100291.28;4972214;28;20597;-69
2022/06/26 07:36:49;;;;;;;16.65;4.95;;;;;;;29.35;31.84;100295.81;4968408;28;20062;-74
2022/06/26 07:39:17;;;;;;;15.30;4.88;;;;;;;29.27;31.99;100292.16;4946689;28;20053;-74
2022/06/26 07:41:46;;;;;;;16.33;5.40;;;;;;;29.32;31.75;100298.59;4984486;28;20513;-75
2022/06/26 07:44:12;;;;;;;14.48;5.13;;;;;;;29.45;31.55;100297.13;4980353;28;20066;-74
2022/06/26 07:46:46;;;;;;;19.98;5.53;;;;;;;29.77;31.55;100298.50;4980812;28;20042;-74
2022/06/26 07:49:21;;;;;;;17.63;5.63;;;;;;;30.12;31.05;100297.84;4975848;28;20053;-75
2022/06/26 07:51:49;;;;;;;21.50;6.27;;;;;;;30.38;30.70;100301.56;4963216;28;20046;-74
2022/06/26 07:54:15;;;;;;;14.00;5.95;;;;;;;30.71;30.30;100296.00;4982799;28;20047;-74
2022/06/26 07:56:41;;;;;;;18.90;5.43;;;;;;;30.81;30.31;100280.28;4997457;28;20046;-74
2022/06/26 07:59:07;;;;;;;17.48;5.45;;;;;;;31.18;30.10;100292.38;4984489;28;20105;-76
2022/06/26 08:01:34;;;;;;;15.13;5.55;;;;;;;31.23;29.88;100289.16;4977650;28;20133;-74
2022/06/26 08:04:02;;;;;;;15.10;5.70;;;;;;;31.22;30.07;100298.84;4968427;28;20047;-74
2022/06/26 08:06:29;;;;;;;15.82;5.72;;;;;;;31.51;29.71;100293.16;4963302;28;20049;-76
2022/06/26 08:08:56;;;;;;;12.38;5.47;;;;;;;31.73;29.63;100293.88;4971809;28;20057;-75
2022/06/26 08:11:23;;;;;;;14.02;5.60;;;;;;;31.89;29.31;100293.44;4970719;28;20051;-74
2022/06/26 08:13:49;;;;;;;17.10;6.10;;;;;;;31.46;29.44;100294.34;4974877;28;20051;-74
2022/06/26 08:16:16;;;;;;;20.90;5.47;;;;;;;30.83;30.38;100297.63;4631582;28;10000505;-75
2022/06/26 08:18:42;;;;;;;14.70;5.72;;;;;;;30.81;30.82;100285.94;4607387;28;10000265;-69
2022/06/26 08:22:10;;;;;;;22.83;6.40;;;;;;;30.95;30.40;100287.94;4961044;28;20057;-74
2022/06/26 08:24:05;;;;;;;23.15;6.50;;;;;;;31.90;29.30;100278.09;4960834;28;20601;-75
2022/06/26 08:26:31;;;;;;;17.52;6.22;;;;;;;32.72;28.35;100278.03;4974566;28;20065;-74
2022/06/26 08:28:57;;;;;;;20.17;6.32;;;;;;;33.33;27.33;100282.34;4976543;28;20126;-74
2022/06/26 08:31:23;;;;;;;15.50;6.43;;;;;;;33.69;26.67;100277.53;4975446;28;20057;-73
2022/06/26 08:33:49;;;;;;;19.05;6.70;;;;;;;34.10;26.45;100281.50;4964044;28;20867;-74
2022/06/26 08:36:17;;;;;;;22.05;7.03;;;;;;;33.92;26.03;100283.28;4965613;28;20047;-69
2022/06/26 08:38:43;;;;;;;17.17;7.28;;;;;;;33.38;26.77;100278.25;4963917;28;20427;-73
2022/06/26 08:41:12;;;;;;;22.52;6.75;;;;;;;33.52;26.98;100283.00;4957658;28;20597;-74
2022/06/26 08:43:40;;;;;;;21.55;7.05;;;;;;;33.83;26.28;100271.69;4976205;28;20046;-73
2022/06/26 08:46:06;;;;;;;22.27;7.03;;;;;;;33.62;26.24;100286.94;4982097;28;20403;-74
2022/06/26 08:48:40;;;;;;;32.63;7.20;;;;;;;32.77;27.67;100277.56;4985017;28;20061;-74
2022/06/26 08:51:07;;;;;;;31.75;7.18;;;;;;;32.90;27.98;100277.91;4982814;28;20742;-74
2022/06/26 08:53:35;;;;;;;30.13;7.28;;;;;;;32.50;27.64;100280.22;4979153;28;20371;-75
2022/06/26 08:56:02;;;;;;;27.73;6.85;;;;;;;32.01;28.63;100282.91;4980518;28;20105;-72
2022/06/26 08:58:28;;;;;;;23.77;7.32;;;;;;;32.27;28.07;100272.25;4967759;28;20074;-74
2022/06/26 09:00:54;;;;;;;21.52;6.90;;;;;;;33.27;26.44;100272.69;4965838;28;20066;-73
2022/06/26 09:03:20;;;;;;;23.73;7.22;;;;;;;34.07;25.58;100266.13;4980705;28;20054;-75
2022/06/26 09:05:46;;;;;;;24.40;6.90;;;;;;;34.45;25.03;100270.84;4983714;28;20441;-73
2022/06/26 09:08:17;;;;;;;16.13;6.85;;;;;;;34.62;24.79;100271.84;4972143;28;20498;-74
2022/06/26 09:10:45;;;;;;;18.00;6.75;;;;;;;34.85;24.36;100264.56;4963793;28;20050;-74
2022/06/26 09:13:12;;;;;;;24.95;6.65;;;;;;;34.97;24.04;100268.81;4966236;28;20047;-73
2022/06/26 09:15:39;;;;;;;16.05;7.10;;;;;;;35.29;23.82;100270.31;4966623;28;20047;-73
2022/06/26 09:18:06;;;;;;;15.55;6.45;;;;;;;35.77;23.33;100273.81;4954474;28;20272;-67
2022/06/26 09:20:37;;;;;;;23.17;5.90;;;;;;;35.63;23.05;100272.88;4985038;28;20141;-69
2022/06/26 09:23:06;;;;;;;16.40;6.38;;;;;;;35.00;23.68;100271.59;4984249;28;20057;-69
2022/06/26 09:25:37;;;;;;;21.48;8.65;;;;;;;34.25;24.90;100265.06;4986360;28;20063;-68
2022/06/26 09:28:10;;;;;;;27.27;9.18;;;;;;;33.32;25.90;100265.78;4978585;28;20043;-70
2022/06/26 09:30:53;;;;;;;14.48;8.05;;;;;;;33.27;26.07;100261.38;4964362;28;20054;-69
2022/06/26 09:33:21;;;;;;;18.83;6.20;;;;;;;34.43;25.04;100254.25;4965031;28;20185;-73
2022/06/26 09:35:47;;;;;;;18.27;6.20;;;;;;;35.11;23.99;100251.53;4964575;28;20554;-76
2022/06/26 09:38:20;;;;;;;;;;;;;;;35.83;23.19;100252.19;4968742;28;20039;-74
2022/06/26 09:40:52;;;;;;;13.27;5.80;;;;;;;36.00;22.60;100238.78;4982985;28;20309;-74
2022/06/26 09:43:32;;;;;;;15.10;6.32;;;;;;;34.98;23.56;100250.56;4622197;28;10000194;-74
2022/06/26 09:46:01;;;;;;;14.68;5.90;;;;;;;35.07;23.37;100239.44;4977893;28;20186;-69
2022/06/26 09:48:31;;;;;;;18.63;6.57;;;;;;;34.56;24.19;100245.97;4976724;28;20157;-73
2022/06/26 09:50:58;;;;;;;18.33;6.22;;;;;;;33.84;25.29;100247.78;4979320;28;20480;-73
2022/06/26 09:53:25;;;;;;;15.48;6.95;;;;;;;34.47;24.92;100240.81;4971414;28;20093;-74
2022/06/26 09:55:53;;;;;;;16.08;6.40;;;;;;;36.05;22.59;100237.50;4980267;28;20471;-73
2022/06/26 09:58:20;;;;;;;17.73;6.20;;;;;;;36.69;21.94;100239.28;4981933;28;20074;-74
2022/06/26 10:06:28;;;;;;;24.20;7.00;;;;;;;34.48;24.69;100238.75;4968889;28;20061;-69
2022/06/26 10:08:56;;;;;;;15.18;6.45;;;;;;;33.56;25.48;100227.06;4981797;28;20058;-67
2022/06/26 10:11:23;;;;;;;30.33;9.30;;;;;;;32.85;26.77;100235.88;4982183;28;20046;-69
2022/06/26 10:13:50;;;;;;;17.40;7.25;;;;;;;32.73;27.04;100234.38;4984931;28;20062;-68
2022/06/26 10:16:34;;;;;;;22.45;7.32;;;;;;;34.60;24.60;100223.22;4986487;28;20046;-69
2022/06/26 10:19:11;;;;;;;16.17;6.38;;;;;;;36.70;22.09;100227.41;4985528;28;20057;-68
2022/06/26 10:21:38;;;;;;;18.83;6.32;;;;;;;38.19;20.12;100225.31;4979517;28;20534;-69
2022/06/26 10:24:05;;;;;;;18.95;6.57;;;;;;;39.17;19.05;100225.69;4965191;28;20549;-69
2022/06/26 10:26:33;;;;;;;19.33;6.72;;;;;;;39.69;18.65;100225.41;4967162;28;20073;-68
2022/06/26 10:29:01;;;;;;;16.83;6.80;;;;;;;39.96;18.08;100218.28;4978998;28;20042;-76
2022/06/26 10:31:31;;;;;;;16.73;6.35;;;;;;;39.71;18.18;100220.00;4967281;28;20055;-74
2022/06/26 10:34:09;;;;;;;30.60;6.15;;;;;;;39.78;17.93;100222.59;4984580;28;20154;-75
2022/06/26 10:36:35;;;;;;;22.23;7.28;;;;;;;38.38;19.39;100212.84;4982171;28;20426;-73
2022/06/26 10:39:05;;;;;;;13.68;6.70;;;;;;;37.55;20.39;100223.94;4962766;28;20054;-73
2022/06/26 10:44:37;;;;;;;21.48;6.70;;;;;;;37.71;19.87;100221.00;4964382;28;20170;-74
2022/06/26 10:47:15;;;;;;;17.33;6.60;;;;;;;38.06;19.58;100208.97;4966363;28;20048;-68
2022/06/26 10:49:49;;;;;;;13.88;5.90;;;;;;;37.23;20.35;100219.94;4966096;28;20514;-68
2022/06/26 10:52:26;;;;;;;15.20;5.95;;;;;;;35.98;21.62;100206.34;4984402;28;20397;-69
2022/06/26 10:54:53;;;;;;;17.13;5.85;;;;;;;35.04;22.93;100214.75;4984829;28;20092;-68
2022/06/26 10:57:25;;;;;;;;;;;;;;;34.46;23.43;100208.00;4983311;28;20616;-68
2022/06/26 10:59:51;;;;;;;31.38;7.80;;;;;;;35.08;22.97;100206.97;4977338;28;19926;-69
2022/06/26 11:02:19;;;;;;;19.45;6.68;;;;;;;37.02;20.74;100211.53;4977257;28;20057;-69
2022/06/26 11:04:45;;;;;;;16.55;7.55;;;;;;;38.50;19.42;100205.53;4982344;28;20066;-68
2022/06/26 11:07:13;;;;;;;19.92;7.10;;;;;;;39.95;17.92;100203.16;4976710;28;20068;-67
2022/06/26 11:09:40;;;;;;;17.13;6.43;;;;;;;40.99;17.05;100202.13;4970464;28;20047;-69
2022/06/26 11:12:06;;;;;;;29.73;6.70;;;;;;;41.15;16.92;100198.16;4963735;28;20058;-70
2022/06/26 11:14:32;;;;;;;19.45;6.72;;;;;;;40.52;17.40;100202.09;4974342;28;20148;-69
2022/06/26 11:16:59;;;;;;;30.20;6.57;;;;;;;39.38;18.83;100198.41;4982827;28;20514;-75
2022/06/26 11:19:29;;;;;;;21.95;6.50;;;;;;;38.89;19.03;100198.94;4996350;28;20391;-75
2022/06/26 11:22:04;;;;;;;42.88;7.75;;;;;;;39.76;18.11;100201.44;4984639;28;20050;-75
2022/06/26 11:24:30;;;;;;;19.63;6.32;;;;;;;40.80;16.90;100193.56;4982572;28;20717;-76
2022/06/26 11:26:56;;;;;;;;;;;;;;;41.53;16.60;100187.44;4981887;28;20070;-75
2022/06/26 11:29:24;;;;;;;32.50;7.72;;;;;;;41.66;16.73;100193.00;4983622;28;19932;-76
2022/06/26 11:31:50;;;;;;;17.05;6.88;;;;;;;39.81;17.55;100184.47;4980566;28;20133;-76
2022/06/26 11:34:18;;;;;;;17.42;6.40;;;;;;;37.76;19.95;100188.28;4624340;28;9999776;-74
2022/06/26 11:36:53;;;;;;;24.30;8.43;;;;;;;36.10;21.73;100194.28;4966862;28;20083;-75
2022/06/26 11:39:20;;;;;;;23.52;6.93;;;;;;;34.90;23.23;100182.50;4973264;28;20057;-75